Terminal Aerodrome Forecast
Issued by NWS

Home | Current Version | Previous Version | Text Only | Print | Product List | Glossary On
Versions: 1 2 3 4 5 6 7 8 9 10 11 12 13 14 15 16 17 18 19 20 21 22 23 24 25 26 27 28 29 30 31 32
000
FTUS45 KCYS 260822 AAB
TAFLAR
TAF AMD
KLAR 260822Z 2608/2706 35012KT 5SM -SN BKN025 OVC040
      TEMPO 2608/2609 2SM -SN OVC015
     FM261100 30020G30KT P6SM VCSH SCT015 BKN050
     FM261800 27025G35KT P6SM SCT150=

USA.gov is the U.S. government's official web portal to all federal, state and local government web resources and services.